ADDS METAR Data INFO
IDs: Format: Raw Decoded Include TAF

Data at: 0314 UTC 20 Jul 2018

KGRI 200253Z AUTO 06005KT 10SM CLR 24/22 A2989 RMK AO2 SLP110 T02390217 53006
KGRI 200153Z AUTO 00000KT 10SM CLR 28/21 A2988 RMK AO2 SLP103 T02780211
KGRI 200053Z 01003KT 10SM CLR 30/20 A2987 RMK AO2 SLP102 T03000200
KGRI 192353Z 32006KT 10SM CLR 32/19 A2987 RMK AO2 SLP103 T03170194 10328 20294 53001
KGRI 192253Z VRB05KT 10SM CLR 33/19 A2987 RMK AO2 SLP100 T03280189
KGRI 192153Z 00000KT 10SM CLR 33/18 A2987 RMK AO2 SLP101 T03280178
KGRI 192053Z 34007KT 10SM CLR 33/16 A2987 RMK AO2 SLP101 T03280161 58003
KGRI 191953Z VRB03KT 10SM CLR 32/18 A2988 RMK AO2 SLP105 T03170183
KGRI 191853Z 34005KT 10SM CLR 31/18 A2988 RMK AO2 SLP102 T03110178
KGRI 191753Z 01009KT 10SM CLR 29/19 A2988 RMK AO2 SLP105 T02890189 10294 20200 58010
KGRI 191653Z 35014KT 10SM CLR 28/18 A2991 RMK AO2 SLP115 T02830178
KGRI 191553Z 34007KT 10SM CLR 27/18 A2991 RMK AO2 SLP114 T02720183
KGRI 191453Z 34015G22KT 10SM CLR 26/19 A2991 RMK AO2 SLP116 T02610194 53011
KGRI 191353Z 30010KT 10SM CLR 24/21 A2990 RMK AO2 SLP112 T02440206
KGRI 191253Z 21003KT 10SM CLR 23/20 A2989 RMK AO2 SLP108 T02280200
KGRI 191153Z AUTO 19004KT 8SM CLR 20/19 A2988 RMK AO2 SLP106 70036 T02000189 10233 20189 58003
KGRI 191053Z AUTO 17003KT 9SM FEW060 19/19 A2988 RMK AO2 SLP106 T01940189
KGRI 190953Z AUTO 34003KT 10SM FEW070 20/19 A2989 RMK AO2 SLP110 T02000189
KGRI 190853Z AUTO 06003KT 10SM CLR 19/19 A2989 RMK AO2 SLP109 T01940189 50001
KGRI 190753Z AUTO 08004KT 10SM CLR 21/19 A2989 RMK AO2 SLP112 T02060189
KGRI 190653Z AUTO 23008KT 10SM CLR 22/20 A2989 RMK AO2 LTG DSNT NE AND E SLP110 T02220200
KGRI 190553Z AUTO 20010KT 10SM CLR 23/22 A2988 RMK AO2 LTG DSNT N AND NE SLP108 60036 T02330217 10283 20228 403000194 58011
KGRI 190453Z AUTO 17009KT 10SM CLR 23/22 A2991 RMK AO2 RAE13 TSE02 SLP117 P0004 T02330217
KGRI 190420Z AUTO 17009KT 10SM FEW023 FEW035 23/22 A2992 RMK AO2 LTG DSNT SW RAE13 TSE02 P0004 T02330217
KGRI 190408Z AUTO 20009KT 8SM VCTS -RA SCT025 BKN036 BKN044 23/22 A2993 RMK AO2 LTG DSNT ALQDS TSE02 P0004 T02280217
KGRI 190359Z AUTO 20004KT 3SM -TSRA BR SCT029 BKN035 OVC045 23/22 A2994 RMK AO2 LTG DSNT ALQDS PRESFR P0004 T02330222
KGRI 190353Z AUTO 10004KT 1SM R35/5000VP6000FT +TSRA BR SCT029 BKN035 OVC055 23/22 A2996 RMK AO2 LTG DSNT E AND SW AND W RAB33 TSB22 SLP134 P0032 T02330217
KGRI 190345Z AUTO 00000KT 1 1/2SM +TSRA BR SCT036 BKN045 BKN055 24/22 A2997 RMK AO2 LTG DSNT SW AND W RAB33 TSB22 P0009 T02390217
KGRI 190328Z AUTO 12008KT 10SM TS FEW046 24/21 A2994 RMK AO2 LTG DSNT W-N TSB22 T02440211
KGRI 190312Z AUTO 14010KT 10SM VCTS CLR 25/21 A2991 RMK AO2 LTG DSNT ALQDS T02500211
KGRI 190253Z AUTO 16009KT 10SM SCT055 25/22 A2992 RMK AO2 LTG DSNT ALQDS SLP121 T02500217 55005
KGRI 190153Z AUTO 13010KT 10SM OVC050 26/22 A2989 RMK AO2 LTG DSNT W AND NW SLP110 T02610217
KGRI 190053Z 15008KT 10SM BKN055 28/21 A2991 RMK AO2 SLP117 T02780206
KGRI 182353Z 18008KT 10SM SCT034 28/20 A2993 RMK AO2 SLP125 T02780200 10300 20244 56016
KGRI 182253Z 16009KT 10SM FEW032 29/21 A2994 RMK AO2 SLP127 T02890206
KGRI 182153Z 13009KT 10SM FEW031 SCT047 29/21 A2997 RMK AO2 SLP136 T02940211
KGRI 182053Z 15007KT 10SM SCT024 BKN045 28/21 A2998 RMK AO2 SLP142 T02780206 58011
KGRI 181953Z 15004KT 10SM SCT024 BKN042 BKN049 28/21 A3000 RMK AO2 SLP148 T02780206
KGRI 181853Z 14006KT 10SM SCT024 BKN030 OVC036 26/21 A3002 RMK AO2 SLP154 T02610206
KGRI 181753Z 13008KT 10SM BKN015 26/21 A3002 RMK AO2 SLP155 T02560211 10256 20194 56006
KGRI 181751Z 14008KT 10SM BKN015 26/21 A3002 RMK AO2
KGRI 181717Z 14010KT 10SM BKN010 24/21 A3002 RMK AO2 CIG 008V012 T02440206
KGRI 181653Z 14010KT 9SM OVC008 23/21 A3002 RMK AO2 SLP156 T02330206
KGRI 181601Z 14009KT 7SM OVC005 22/20 A3004 RMK AO2 CIG 004V009 T02170200
KGRI 181553Z 13009KT 7SM OVC004 22/20 A3004 RMK AO2 SLP163 T02170200
KGRI 181548Z 11010KT 6SM BR OVC004 22/20 A3004 RMK AO2
KGRI 181517Z 13013KT 6SM BR OVC005 21/19 A3003 RMK AO2 T02110194